Time;durP1;ratioP1;P1;durP2;ratioP2;P2;SDS_P1;SDS_P2;PMS_P1;PMS_P2;Temp;Humidity;BMP_temperature;BMP_pressure;BME280_temperature;BME280_humidity;BME280_pressure;Samples;Min_cycle;Max_cycle;Signal;HPM_P1;HPM_P2
2022/09/09 06:25:20;;;;;;;2.60;1.80;;;16.60;99.90;;;;;;5703164;22;20573;-72
2022/09/09 06:27:49;;;;;;;2.77;1.17;;;16.70;99.90;;;;;;4896116;28;1280306;-72
2022/09/09 06:30:17;;;;;;;3.90;1.20;;;16.70;99.90;;;;;;4929823;29;20193;-73
2022/09/09 06:32:42;;;;;;;6.03;1.20;;;16.80;99.90;;;;;;4929990;29;20493;-71
2022/09/09 06:35:08;;;;;;;6.57;1.63;;;16.80;99.90;;;;;;4926232;29;20420;-72
2022/09/09 06:37:33;;;;;;;7.97;1.53;;;17.00;99.90;;;;;;4927403;29;20225;-72
2022/09/09 06:39:59;;;;;;;3.13;1.20;;;17.00;99.90;;;;;;4919578;29;20596;-71
2022/09/09 06:42:24;;;;;;;2.33;1.00;;;17.00;99.90;;;;;;4916937;29;20190;-72
2022/09/09 06:44:50;;;;;;;5.90;1.30;;;17.10;99.90;;;;;;4912220;29;20242;-72
2022/09/09 06:47:16;;;;;;;9.10;1.50;;;17.30;99.90;;;;;;4912070;29;20238;-73
2022/09/09 06:49:43;;;;;;;5.40;1.50;;;17.30;99.90;;;;;;4925090;29;20200;-72
2022/09/09 06:52:12;;;;;;;2.07;0.90;;;17.30;99.90;;;;;;4932114;29;20205;-73
2022/09/09 06:54:38;;;;;;;4.10;1.50;;;17.30;99.90;;;;;;4932268;29;20983;-76
2022/09/09 06:57:06;;;;;;;3.27;1.10;;;17.40;99.90;;;;;;4932671;29;20475;-76
2022/09/09 06:59:32;;;;;;;5.33;1.10;;;17.50;99.90;;;;;;4938654;29;20650;-75
2022/09/09 07:01:58;;;;;;;4.77;1.10;;;17.40;99.90;;;;;;4932805;29;20388;-76
2022/09/09 07:04:25;;;;;;;3.23;1.40;;;17.50;99.90;;;;;;4947013;28;20185;-76
2022/09/09 07:06:52;;;;;;;2.60;1.10;;;17.50;99.90;;;;;;4915286;29;20198;-76
2022/09/09 07:09:17;;;;;;;4.37;1.33;;;17.60;99.90;;;;;;4913783;29;20898;-76
2022/09/09 07:11:49;;;;;;;5.13;1.20;;;17.80;99.90;;;;;;4913896;29;20567;-75
2022/09/09 07:14:15;;;;;;;5.17;1.40;;;17.70;99.90;;;;;;4913433;29;20577;-76
2022/09/09 07:16:45;;;;;;;7.23;1.87;;;17.70;99.90;;;;;;4913196;29;20865;-75
2022/09/09 07:19:12;;;;;;;4.13;1.30;;;17.70;99.90;;;;;;4913509;29;20519;-76
2022/09/09 07:21:40;;;;;;;3.83;1.40;;;17.80;99.90;;;;;;4913561;29;20501;-75
2022/09/09 07:24:07;;;;;;;5.73;1.63;;;17.80;99.90;;;;;;4913436;29;20912;-76
2022/09/09 07:26:33;;;;;;;4.90;1.67;;;17.90;99.90;;;;;;4907164;29;20841;-75
2022/09/09 07:28:59;;;;;;;6.07;1.97;;;18.00;99.90;;;;;;4886874;29;20493;-76
2022/09/09 07:31:35;;;;;;;6.10;1.40;;;18.20;99.90;;;;;;4880922;29;21107;-75
2022/09/09 07:34:00;;;;;;;4.33;1.23;;;18.30;99.90;;;;;;4865311;29;20286;-76
2022/09/09 07:36:32;;;;;;;4.83;1.67;;;18.30;99.90;;;;;;4881920;29;20502;-75
2022/09/09 07:39:04;;;;;;;4.57;1.30;;;18.40;99.90;;;;;;4880685;29;20637;-77
2022/09/09 07:41:37;;;;;;;4.70;1.43;;;18.50;99.90;;;;;;4881967;29;20427;-77
2022/09/09 07:44:14;;;;;;;8.37;1.47;;;18.50;99.90;;;;;;4881625;29;20394;-77
2022/09/09 07:46:40;;;;;;;5.50;1.67;;;18.60;99.90;;;;;;4881829;29;20414;-77
2022/09/09 07:49:07;;;;;;;4.27;1.63;;;18.70;99.90;;;;;;4881693;29;20514;-73
2022/09/09 07:51:35;;;;;;;3.23;1.20;;;18.70;99.90;;;;;;4881660;29;20792;-72
2022/09/09 07:54:09;;;;;;;7.57;1.43;;;18.80;99.90;;;;;;4881419;29;20460;-72
2022/09/09 07:56:35;;;;;;;4.67;1.43;;;18.70;99.90;;;;;;4881551;29;20833;-73
2022/09/09 07:59:01;;;;;;;8.00;1.57;;;18.80;99.90;;;;;;4881564;29;20424;-72
2022/09/09 08:01:38;;;;;;;4.70;1.30;;;18.80;99.90;;;;;;4864725;29;20920;-72
2022/09/09 08:04:06;;;;;;;9.17;2.10;;;18.80;99.90;;;;;;4881186;29;20967;-73
2022/09/09 08:06:36;;;;;;;2.67;1.00;;;18.90;99.90;;;;;;4881472;29;20451;-73
2022/09/09 08:09:02;;;;;;;3.40;1.57;;;19.00;99.90;;;;;;4881483;29;20414;-72
2022/09/09 08:11:29;;;;;;;4.63;1.50;;;19.00;99.90;;;;;;4881228;29;20478;-73
2022/09/09 08:13:55;;;;;;;4.23;2.03;;;19.20;99.90;;;;;;4881053;29;20434;-71
2022/09/09 08:16:30;;;;;;;2.50;1.30;;;19.10;99.90;;;;;;4881388;29;20550;-72
2022/09/09 08:18:56;;;;;;;3.73;1.13;;;19.20;99.90;;;;;;4881548;29;20443;-72
2022/09/09 08:21:27;;;;;;;6.80;1.93;;;19.30;99.90;;;;;;4881376;29;20895;-72
2022/09/09 08:23:54;;;;;;;5.67;2.00;;;19.50;99.90;;;;;;4880993;29;20203;-73
2022/09/09 08:26:28;;;;;;;3.23;1.40;;;19.50;99.90;;;;;;4880031;29;20451;-73
2022/09/09 08:28:56;;;;;;;3.13;0.97;;;19.70;99.90;;;;;;4868371;29;20423;-73
2022/09/09 08:31:28;;;;;;;2.80;1.20;;;19.80;99.90;;;;;;4862650;29;20436;-72
2022/09/09 08:33:55;;;;;;;6.43;1.37;;;19.70;99.90;;;;;;4862320;29;20520;-73
2022/09/09 08:36:25;;;;;;;4.33;1.00;;;19.60;99.90;;;;;;4876473;29;21053;-73
2022/09/09 08:38:54;;;;;;;2.80;0.90;;;19.70;99.90;;;;;;4862325;29;20428;-73
2022/09/09 08:41:31;;;;;;;5.37;1.47;;;19.40;99.90;;;;;;4861512;29;20417;-73
2022/09/09 08:44:30;;;;;;;8.50;1.73;;;19.50;99.90;;;;;;4861936;29;20423;-73
2022/09/09 08:47:26;;;;;;;2.30;1.30;;;19.60;99.90;;;;;;4862259;29;20959;-73
2022/09/09 08:50:23;;;;;;;3.87;1.80;;;19.60;99.90;;;;;;4862200;29;20425;-74
2022/09/09 08:53:16;;;;;;;2.67;0.70;;;19.90;99.90;;;;;;4862188;29;20428;-73
2022/09/09 08:55:59;;;;;;;4.10;0.93;;;20.00;99.90;;;;;;4861637;29;20482;-72
2022/09/09 08:58:32;;;;;;;3.93;0.97;;;20.00;99.90;;;;;;4862217;29;20421;-72
2022/09/09 09:01:13;;;;;;;2.43;1.10;;;20.00;99.90;;;;;;4862218;29;20417;-73
2022/09/09 09:03:56;;;;;;;2.00;0.90;;;20.00;99.90;;;;;;4861849;29;20821;-73
2022/09/09 09:06:31;;;;;;;2.70;1.00;;;20.20;99.90;;;;;;4861937;29;20448;-72
2022/09/09 09:09:22;;;;;;;2.60;0.90;;;20.30;99.90;;;;;;4862027;29;20434;-73
2022/09/09 09:12:01;;;;;;;5.33;1.10;;;20.30;99.90;;;;;;4861788;29;20464;-73
2022/09/09 09:14:30;;;;;;;2.83;1.10;;;20.20;99.90;;;;;;4861500;29;20479;-73
2022/09/09 09:17:15;;;;;;;3.63;1.23;;;20.10;99.90;;;;;;4861587;29;20461;-73
2022/09/09 09:19:43;;;;;;;2.67;1.10;;;20.00;99.90;;;;;;4861814;29;20416;-74
2022/09/09 09:22:15;;;;;;;4.03;1.00;;;20.00;99.90;;;;;;4860363;29;20947;-73
2022/09/09 09:25:00;;;;;;;3.70;1.57;;;20.00;99.90;;;;;;4861307;29;20449;-73
2022/09/09 09:27:34;;;;;;;4.43;1.10;;;19.90;99.90;;;;;;4862673;29;20440;-73
2022/09/09 09:30:22;;;;;;;2.50;0.93;;;19.90;99.90;;;;;;4880026;29;20430;-73
2022/09/09 09:32:56;;;;;;;4.43;1.30;;;20.00;99.90;;;;;;4863390;29;20915;-73
2022/09/09 09:35:21;;;;;;;2.20;1.17;;;20.10;99.90;;;;;;4879822;29;20412;-73
2022/09/09 09:37:47;;;;;;;3.40;1.00;;;20.30;99.90;;;;;;4878806;29;21051;-73
2022/09/09 09:40:19;;;;;;;5.27;1.00;;;20.40;99.90;;;;;;4879778;29;20179;-73
2022/09/09 09:43:00;;;;;;;2.23;0.90;;;20.50;99.90;;;;;;4879957;29;20419;-74
2022/09/09 09:45:46;;;;;;;6.57;1.10;;;20.50;99.90;;;;;;4879455;29;20414;-73
2022/09/09 09:48:13;;;;;;;3.80;1.80;;;20.40;99.90;;;;;;4879747;29;20437;-73
2022/09/09 09:50:56;;;;;;;2.17;1.00;;;20.70;99.90;;;;;;4879522;29;20428;-73
2022/09/09 09:53:24;;;;;;;2.60;0.80;;;20.90;99.90;;;;;;4879594;29;20419;-74
2022/09/09 09:56:08;;;;;;;2.10;0.90;;;20.90;99.90;;;;;;4879157;29;20491;-73
2022/09/09 09:58:50;;;;;;;1.30;0.80;;;21.00;99.90;;;;;;4879574;29;20428;-73
2022/09/09 10:01:27;;;;;;;3.17;0.90;;;21.60;99.90;;;;;;4879615;29;20785;-73
2022/09/09 10:03:57;;;;;;;2.80;0.90;;;21.80;99.90;;;;;;4879168;29;20455;-73
2022/09/09 10:06:33;;;;;;;1.53;0.90;;;21.30;99.90;;;;;;4879462;29;20507;-73
2022/09/09 10:09:01;;;;;;;2.87;0.90;;;21.10;99.90;;;;;;4879807;29;20443;-73
2022/09/09 10:11:49;;;;;;;1.70;0.90;;;21.10;99.90;;;;;;4879571;29;20410;-73
2022/09/09 10:14:27;;;;;;;2.37;0.80;;;21.10;99.90;;;;;;4879054;29;20475;-73
2022/09/09 10:17:04;;;;;;;3.67;1.00;;;21.00;99.90;;;;;;4879324;29;20471;-73
2022/09/09 10:19:31;;;;;;;3.30;1.50;;;20.90;99.90;;;;;;4879544;29;20814;-73
2022/09/09 10:22:31;;;;;;;3.43;1.00;;;20.80;99.90;;;;;;4879705;29;20762;-73
2022/09/09 10:25:08;;;;;;;2.03;0.90;;;20.90;99.90;;;;;;4878075;29;20484;-73
2022/09/09 10:27:36;;;;;;;2.17;0.83;;;21.00;99.90;;;;;;4878235;29;20941;-73
2022/09/09 10:30:02;;;;;;;1.40;0.70;;;21.10;99.90;;;;;;4879478;29;20522;-73
2022/09/09 10:32:38;;;;;;;1.63;0.70;;;21.20;99.90;;;;;;4879252;29;20507;-73
2022/09/09 10:35:25;;;;;;;2.70;0.70;;;21.30;99.90;;;;;;4879073;29;20175;-73
2022/09/09 10:38:05;;;;;;;5.30;1.27;;;21.40;99.90;;;;;;4879320;29;20438;-73
2022/09/09 10:40:53;;;;;;;3.20;0.83;;;21.80;99.90;;;;;;4879097;29;20419;-73
2022/09/09 10:43:40;;;;;;;2.30;0.90;;;21.90;99.90;;;;;;4879215;29;20418;-73
2022/09/09 10:46:18;;;;;;;1.87;1.00;;;21.90;99.90;;;;;;4879025;29;20410;-73
2022/09/09 10:49:08;;;;;;;1.00;0.60;;;21.70;99.90;;;;;;4879073;29;20547;-73
2022/09/09 10:51:51;;;;;;;3.07;0.70;;;21.60;99.90;;;;;;4879219;29;20417;-73
2022/09/09 10:54:39;;;;;;;3.13;1.17;;;21.20;99.90;;;;;;4878769;29;20427;-73
2022/09/09 10:57:13;;;;;;;1.90;0.70;;;21.10;99.90;;;;;;4877704;29;21052;-73
2022/09/09 10:59:45;;;;;;;5.77;1.50;;;21.10;99.90;;;;;;4879037;29;20422;-73
2022/09/09 11:02:22;;;;;;;3.13;0.90;;;21.00;99.90;;;;;;4879182;29;20401;-73
2022/09/09 11:04:58;;;;;;;5.40;1.07;;;21.00;99.90;;;;;;4881826;29;20412;-74
2022/09/09 11:07:58;;;;;;;2.90;1.07;;;21.10;99.90;;;;;;4882583;29;20446;-73
2022/09/09 11:10:41;;;;;;;2.90;0.90;;;21.10;99.90;;;;;;4865629;29;20533;-73
2022/09/09 11:13:21;;;;;;;3.73;1.47;;;21.20;99.90;;;;;;4881313;29;20441;-73
2022/09/09 11:15:51;;;;;;;1.67;0.80;;;21.40;99.90;;;;;;4882038;29;20410;-73
2022/09/09 11:18:22;;;;;;;2.80;1.20;;;21.50;99.90;;;;;;4882667;29;20500;-73
2022/09/09 11:20:51;;;;;;;4.20;1.33;;;21.50;99.90;;;;;;4882358;29;20392;-73
2022/09/09 11:23:39;;;;;;;3.33;1.07;;;21.60;99.90;;;;;;4882351;29;20420;-73
2022/09/09 11:26:07;;;;;;;2.70;1.00;;;21.60;99.90;;;;;;4881915;29;20522;-73
2022/09/09 11:28:53;;;;;;;2.63;1.20;;;21.70;99.90;;;;;;4882122;29;20438;-73
2022/09/09 11:31:55;;;;;;;2.57;0.90;;;21.70;99.90;;;;;;4882198;29;20412;-73
2022/09/09 11:34:50;;;;;;;2.07;0.70;;;21.70;99.90;;;;;;4880639;29;20431;-73
2022/09/09 11:37:36;;;;;;;1.97;0.90;;;21.60;99.90;;;;;;4882246;29;20467;-73
2022/09/09 11:40:16;;;;;;;1.93;1.10;;;21.50;99.90;;;;;;4882018;29;20383;-73
2022/09/09 11:42:42;;;;;;;2.13;1.00;;;21.50;99.90;;;;;;4881904;29;20489;-74
2022/09/09 11:45:11;;;;;;;4.53;1.30;;;21.30;99.90;;;;;;4881628;29;20531;-72
2022/09/09 11:47:36;;;;;;;3.20;0.97;;;21.20;99.90;;;;;;4881957;29;20683;-73
2022/09/09 11:50:14;;;;;;;9.83;1.50;;;21.10;99.90;;;;;;4881919;29;20424;-73
2022/09/09 11:52:48;;;;;;;3.27;1.03;;;21.10;99.90;;;;;;4881729;29;20227;-73
2022/09/09 11:55:29;;;;;;;1.57;0.90;;;21.00;99.90;;;;;;4881441;29;20828;-73
2022/09/09 11:58:14;;;;;;;3.13;1.00;;;20.90;99.90;;;;;;4881479;29;20438;-73
2022/09/09 12:00:45;;;;;;;2.00;1.00;;;20.90;99.90;;;;;;4881684;29;20777;-72
2022/09/09 12:03:32;;;;;;;2.43;0.80;;;20.70;99.90;;;;;;4881495;29;20825;-73
2022/09/09 12:06:00;;;;;;;2.80;0.77;;;20.80;99.90;;;;;;4881092;29;20788;-73
2022/09/09 12:08:29;;;;;;;4.03;0.70;;;21.00;99.90;;;;;;4881411;29;20416;-73
2022/09/09 12:10:59;;;;;;;3.30;1.23;;;21.00;99.90;;;;;;4880407;29;20787;-73
2022/09/09 12:13:26;;;;;;;4.73;1.33;;;21.00;99.90;;;;;;4881344;29;20448;-73
2022/09/09 12:15:57;;;;;;;4.93;1.03;;;21.10;99.90;;;;;;4880861;29;20418;-73
2022/09/09 12:18:36;;;;;;;5.53;1.00;;;21.10;99.90;;;;;;4881396;29;20442;-73
2022/09/09 12:21:33;;;;;;;2.63;0.70;;;21.10;99.90;;;;;;4881266;29;20436;-74
2022/09/09 12:24:30;;;;;;;2.80;1.13;;;21.20;99.90;;;;;;4881220;29;20444;-73
2022/09/09 12:26:56;;;;;;;4.13;1.07;;;21.10;99.90;;;;;;4879633;29;20485;-73
2022/09/09 12:29:33;;;;;;;5.97;1.10;;;20.90;99.90;;;;;;4881199;29;20436;-72
2022/09/09 12:32:11;;;;;;;2.33;1.03;;;20.30;99.90;;;;;;4880150;29;20184;-73
2022/09/09 12:34:46;;;;;;;3.20;1.40;;;19.40;99.90;;;;;;4880882;29;20424;-73
2022/09/09 12:37:35;;;;;;;11.60;1.70;;;18.40;99.90;;;;;;4880781;29;20531;-72
2022/09/09 12:40:06;;;;;;;2.63;1.20;;;18.10;99.90;;;;;;4880986;29;20956;-73
2022/09/09 12:42:35;;;;;;;2.70;1.20;;;18.30;99.90;;;;;;4880972;29;20485;-72
2022/09/09 12:45:16;;;;;;;3.50;1.57;;;18.90;99.90;;;;;;4880549;29;20419;-73
2022/09/09 12:47:52;;;;;;;4.33;1.73;;;19.50;99.90;;;;;;4880578;29;20440;-73
2022/09/09 12:50:22;;;;;;;1.77;0.90;;;20.30;99.90;;;;;;4880657;29;20416;-73
2022/09/09 12:52:50;;;;;;;3.57;1.00;;;20.90;99.90;;;;;;4893339;29;20458;-73
2022/09/09 12:55:21;;;;;;;2.23;1.27;;;21.50;99.90;;;;;;4896263;29;20825;-76
2022/09/09 12:57:50;;;;;;;2.43;1.27;;;21.80;99.90;;;;;;4899233;29;20495;-76
2022/09/09 13:00:20;;;;;;;3.73;0.90;;;22.00;99.90;;;;;;4899428;29;20390;-76
2022/09/09 13:02:54;;;;;;;3.80;1.20;;;21.70;99.90;;;;;;4899295;29;20404;-76
2022/09/09 13:05:27;;;;;;;3.00;1.10;;;21.30;99.90;;;;;;4883837;29;20456;-76
2022/09/09 13:08:02;;;;;;;2.80;0.80;;;21.00;99.90;;;;;;4898204;29;20409;-77
2022/09/09 13:10:31;;;;;;;3.00;1.20;;;20.80;99.90;;;;;;4897891;29;20502;-77
2022/09/09 13:12:58;;;;;;;3.80;1.07;;;20.80;99.90;;;;;;4898016;29;20786;-78
2022/09/09 13:15:27;;;;;;;3.50;0.87;;;20.90;99.90;;;;;;4897354;29;20788;-78
2022/09/09 13:18:00;;;;;;;2.43;0.90;;;21.00;99.90;;;;;;4881966;29;20471;-77
2022/09/09 13:20:27;;;;;;;1.60;0.87;;;21.10;99.90;;;;;;4880323;29;20869;-77
2022/09/09 13:22:54;;;;;;;2.80;1.10;;;21.30;99.90;;;;;;4879204;29;20420;-77
2022/09/09 13:25:29;;;;;;;1.80;0.80;;;21.20;99.90;;;;;;4879931;29;20431;-78
2022/09/09 13:28:05;;;;;;;1.50;0.73;;;21.10;99.90;;;;;;4879769;29;20443;-77
2022/09/09 13:30:35;;;;;;;3.03;0.70;;;21.00;99.90;;;;;;4891893;29;20915;-78
2022/09/09 13:33:03;;;;;;;3.03;0.90;;;21.00;99.90;;;;;;4898708;29;20502;-78
2022/09/09 13:35:29;;;;;;;1.03;0.80;;;21.00;99.90;;;;;;4898366;29;20832;-78
2022/09/09 13:37:55;;;;;;;2.57;0.90;;;21.00;99.90;;;;;;4897320;29;21020;-77
2022/09/09 13:40:23;;;;;;;3.50;1.30;;;20.90;99.90;;;;;;4898179;29;20424;-79
2022/09/09 13:42:52;;;;;;;5.33;0.97;;;20.90;99.90;;;;;;4863375;29;20186;-78
2022/09/09 13:45:21;;;;;;;2.13;0.90;;;21.00;99.90;;;;;;4879593;29;20427;-77
2022/09/09 13:47:47;;;;;;;3.60;1.00;;;20.90;99.90;;;;;;4863149;29;20495;-72
2022/09/09 13:50:28;;;;;;;2.60;1.00;;;20.70;99.90;;;;;;4879633;29;20813;-73
2022/09/09 13:52:58;;;;;;;4.47;0.93;;;20.30;99.90;;;;;;4880695;29;22231;-73
2022/09/09 13:55:28;;;;;;;2.40;1.03;;;20.20;99.90;;;;;;4885924;29;20442;-73
2022/09/09 13:58:02;;;;;;;2.80;1.23;;;20.20;99.90;;;;;;4889825;29;21014;-72
2022/09/09 14:00:34;;;;;;;3.43;1.17;;;20.10;99.90;;;;;;4896261;29;20442;-72
2022/09/09 14:03:03;;;;;;;3.57;1.00;;;20.10;99.90;;;;;;4896704;29;20522;-72
2022/09/09 14:05:31;;;;;;;1.10;0.83;;;20.10;99.90;;;;;;4892759;29;20436;-74
2022/09/09 14:07:57;;;;;;;1.07;0.70;;;19.70;99.90;;;;;;4880013;29;20444;-73
2022/09/09 14:10:23;;;;;;;2.80;0.97;;;19.30;99.90;;;;;;4879278;29;20395;-73
2022/09/09 14:12:49;;;;;;;3.33;1.10;;;19.10;99.90;;;;;;4879373;29;20457;-73
2022/09/09 14:15:15;;;;;;;1.73;0.80;;;18.90;99.90;;;;;;4877934;29;20195;-73
2022/09/09 14:17:41;;;;;;;1.50;0.93;;;18.70;99.90;;;;;;4882922;29;20222;-73
2022/09/09 14:20:09;;;;;;;2.50;1.13;;;18.60;99.90;;;;;;4897941;29;20900;-73
2022/09/09 14:22:35;;;;;;;3.80;1.10;;;18.50;99.90;;;;;;4897978;29;20431;-72
2022/09/09 14:25:01;;;;;;;4.70;1.10;;;18.40;99.90;;;;;;4897740;29;20426;-73
2022/09/09 14:27:26;;;;;;;3.40;1.10;;;18.30;99.90;;;;;;4897806;29;20447;-73
2022/09/09 14:29:52;;;;;;;4.33;1.20;;;18.10;99.90;;;;;;4894962;29;20471;-73
2022/09/09 14:32:19;;;;;;;6.63;1.20;;;18.10;99.90;;;;;;4879447;29;20191;-73
2022/09/09 14:34:44;;;;;;;2.73;0.90;;;18.20;99.90;;;;;;4879260;29;20432;-73
2022/09/09 14:37:10;;;;;;;1.50;0.80;;;18.40;99.90;;;;;;4879290;29;20813;-73
2022/09/09 14:39:36;;;;;;;3.23;1.00;;;18.50;99.90;;;;;;4882476;29;20190;-73
2022/09/09 14:42:02;;;;;;;2.70;1.20;;;18.50;99.90;;;;;;4882933;29;20183;-73
2022/09/09 14:44:28;;;;;;;2.70;1.10;;;18.50;99.90;;;;;;4883733;29;20187;-73
2022/09/09 14:46:54;;;;;;;3.23;1.20;;;18.60;99.90;;;;;;4882841;29;20507;-73
2022/09/09 14:49:19;;;;;;;2.03;1.00;;;18.60;99.90;;;;;;4891335;29;20502;-73
2022/09/09 14:51:45;;;;;;;1.63;0.93;;;18.70;99.90;;;;;;4901465;29;20430;-73
2022/09/09 14:54:11;;;;;;;2.10;1.00;;;18.80;99.90;;;;;;4901144;29;20718;-73
2022/09/09 14:56:37;;;;;;;1.30;0.70;;;19.00;99.90;;;;;;4915590;29;20237;-73
2022/09/09 14:59:03;;;;;;;2.00;0.80;;;19.20;99.90;;;;;;4915958;29;20401;-73
2022/09/09 15:01:31;;;;;;;2.90;1.00;;;19.40;99.90;;;;;;4901146;29;20414;-73
2022/09/09 15:03:58;;;;;;;1.43;0.90;;;19.60;99.90;;;;;;4901042;29;20443;-73
2022/09/09 15:06:26;;;;;;;3.20;2.07;;;19.80;99.90;;;;;;4901086;29;20498;-74
2022/09/09 15:08:53;;;;;;;2.90;0.73;;;19.90;99.90;;;;;;4899953;29;20437;-73
2022/09/09 15:11:20;;;;;;;3.93;0.90;;;19.90;99.90;;;;;;4901244;29;20422;-73
2022/09/09 15:13:47;;;;;;;4.60;1.20;;;19.90;99.90;;;;;;4900720;29;20765;-73
2022/09/09 15:16:19;;;;;;;2.67;0.93;;;19.60;99.90;;;;;;4899540;29;20425;-73
2022/09/09 15:18:46;;;;;;;2.90;1.10;;;19.40;99.90;;;;;;4900935;29;20989;-73
2022/09/09 15:21:13;;;;;;;3.13;1.03;;;19.30;99.90;;;;;;4899862;29;20431;-73
2022/09/09 15:23:38;;;;;;;6.63;1.07;;;19.30;99.90;;;;;;4901337;29;20390;-73
2022/09/09 15:26:05;;;;;;;3.73;1.00;;;19.40;99.90;;;;;;4895950;29;20511;-73
2022/09/09 15:28:37;;;;;;;1.63;1.00;;;19.40;99.90;;;;;;4882040;29;20497;-73
2022/09/09 15:31:10;;;;;;;1.20;0.80;;;19.40;99.90;;;;;;4882299;29;20420;-73
2022/09/09 15:33:37;;;;;;;2.87;1.00;;;19.50;99.90;;;;;;4882300;29;20371;-74
2022/09/09 15:36:20;;;;;;;3.40;0.90;;;19.60;99.90;;;;;;4881616;29;20436;-73
2022/09/09 15:38:46;;;;;;;2.03;0.80;;;19.60;99.90;;;;;;4889265;29;20491;-73
2022/09/09 15:41:13;;;;;;;2.30;0.93;;;19.60;99.90;;;;;;4900716;29;20398;-74
2022/09/09 15:43:42;;;;;;;2.73;1.20;;;19.60;99.90;;;;;;4900614;29;20266;-73
2022/09/09 15:46:17;;;;;;;0.97;0.60;;;19.70;99.90;;;;;;4900347;29;20409;-74
2022/09/09 15:48:44;;;;;;;4.00;0.80;;;19.80;99.90;;;;;;4900132;29;20422;-73
2022/09/09 15:51:11;;;;;;;1.77;0.90;;;19.70;99.90;;;;;;4897627;29;20517;-73
2022/09/09 15:53:38;;;;;;;2.27;0.80;;;19.80;99.90;;;;;;4900826;29;20442;-73
2022/09/09 15:56:07;;;;;;;2.07;0.80;;;19.80;99.90;;;;;;4881834;29;20532;-74
2022/09/09 15:58:34;;;;;;;0.97;0.63;;;19.60;99.90;;;;;;4881847;29;20424;-74
2022/09/09 16:01:07;;;;;;;2.13;0.70;;;19.50;99.90;;;;;;4880426;29;20436;-74
2022/09/09 16:03:47;;;;;;;1.53;0.80;;;19.30;99.90;;;;;;4890317;29;20487;-74
2022/09/09 16:06:21;;;;;;;1.10;0.70;;;19.20;99.90;;;;;;4899690;29;20462;-74
2022/09/09 16:08:50;;;;;;;1.00;0.60;;;19.10;99.90;;;;;;4900185;29;20503;-74
2022/09/09 16:11:21;;;;;;;1.83;0.90;;;19.00;99.90;;;;;;4900067;29;20823;-74
2022/09/09 16:13:48;;;;;;;1.30;0.60;;;18.90;99.90;;;;;;4899796;29;20851;-75
2022/09/09 16:16:16;;;;;;;2.43;0.80;;;19.00;99.90;;;;;;4886467;29;20463;-74
2022/09/09 16:18:47;;;;;;;1.87;0.73;;;19.00;99.90;;;;;;4881271;29;20451;-74
2022/09/09 16:21:16;;;;;;;2.70;1.40;;;19.00;99.90;;;;;;4881171;29;20405;-74
2022/09/09 16:23:42;;;;;;;1.40;0.80;;;18.90;99.90;;;;;;4880028;29;20455;-74
2022/09/09 16:26:11;;;;;;;3.20;1.03;;;19.20;99.90;;;;;;4880877;29;20983;-74
2022/09/09 16:28:37;;;;;;;1.93;0.70;;;19.10;99.90;;;;;;4881253;29;20422;-74
2022/09/09 16:31:07;;;;;;;1.93;0.90;;;19.20;99.90;;;;;;4880998;29;20451;-74
2022/09/09 16:33:33;;;;;;;1.37;0.90;;;19.20;99.90;;;;;;4881008;29;20179;-74
2022/09/09 16:36:04;;;;;;;2.13;0.90;;;19.40;99.90;;;;;;4880674;29;20462;-74
2022/09/09 16:38:30;;;;;;;1.53;0.80;;;19.50;99.90;;;;;;4881239;29;20183;-74
2022/09/09 16:41:00;;;;;;;1.93;0.83;;;19.50;99.90;;;;;;4893676;29;20428;-74
2022/09/09 16:43:25;;;;;;;2.27;1.20;;;19.50;99.90;;;;;;4899618;29;20210;-74
2022/09/09 16:45:51;;;;;;;1.10;0.70;;;19.40;99.90;;;;;;4913752;29;20495;-73
2022/09/09 16:48:16;;;;;;;2.17;0.90;;;19.40;99.90;;;;;;4898390;29;20209;-73
2022/09/09 16:50:42;;;;;;;1.00;0.80;;;19.50;99.90;;;;;;4899070;29;20195;-74
2022/09/09 16:53:08;;;;;;;4.70;0.97;;;19.80;99.90;;;;;;4913773;29;20241;-74
2022/09/09 16:55:39;;;;;;;1.83;0.80;;;19.80;99.90;;;;;;4898938;29;20201;-74
2022/09/09 16:58:04;;;;;;;2.63;0.97;;;19.80;99.90;;;;;;4898098;29;20466;-74
2022/09/09 17:00:30;;;;;;;1.93;0.93;;;19.80;99.90;;;;;;4896066;29;20462;-74
2022/09/09 17:02:55;;;;;;;3.10;0.87;;;19.80;99.90;;;;;;4898887;29;20277;-74
2022/09/09 17:05:22;;;;;;;1.50;0.90;;;19.70;99.90;;;;;;4898540;29;20183;-73
2022/09/09 17:07:48;;;;;;;2.13;1.00;;;19.60;99.90;;;;;;4897740;29;20622;-73
2022/09/09 17:10:14;;;;;;;2.27;0.97;;;19.50;99.90;;;;;;4898934;29;20763;-73
2022/09/09 17:12:41;;;;;;;1.73;1.00;;;19.50;99.90;;;;;;4898969;29;20409;-73
2022/09/09 17:15:07;;;;;;;0.90;0.67;;;19.40;99.90;;;;;;4897394;29;20234;-73
2022/09/09 17:17:32;;;;;;;2.80;1.13;;;19.40;99.90;;;;;;4898503;29;20501;-73
2022/09/09 17:19:58;;;;;;;2.80;1.00;;;19.30;99.90;;;;;;4913556;29;20405;-73
2022/09/09 17:22:26;;;;;;;5.13;1.20;;;19.20;99.90;;;;;;4898938;29;20634;-74
2022/09/09 17:24:51;;;;;;;2.50;0.70;;;19.00;99.90;;;;;;4898667;29;20236;-74
2022/09/09 17:27:17;;;;;;;2.50;1.10;;;19.10;99.90;;;;;;4898853;29;20447;-73
2022/09/09 17:29:43;;;;;;;0.90;0.70;;;19.10;99.90;;;;;;4913316;29;20210;-74
2022/09/09 17:32:09;;;;;;;0.93;0.80;;;19.10;99.90;;;;;;4913356;29;20246;-73
2022/09/09 17:34:35;;;;;;;2.60;1.30;;;18.90;99.90;;;;;;4898504;29;20222;-73
2022/09/09 17:37:01;;;;;;;1.33;0.70;;;18.80;99.90;;;;;;4898587;29;20499;-73
2022/09/09 17:39:26;;;;;;;1.57;0.90;;;18.70;99.90;;;;;;4898495;29;20429;-73
2022/09/09 17:41:53;;;;;;;2.70;1.10;;;18.70;99.90;;;;;;4912720;29;20707;-73
2022/09/09 17:44:19;;;;;;;1.90;1.17;;;18.50;99.90;;;;;;4910784;29;20663;-73
2022/09/09 17:46:45;;;;;;;1.30;0.97;;;18.50;99.90;;;;;;4898406;29;20447;-74
2022/09/09 17:49:14;;;;;;;1.93;1.03;;;18.50;99.90;;;;;;4898609;29;20419;-73
2022/09/09 17:51:41;;;;;;;1.20;0.83;;;18.50;99.90;;;;;;4898488;29;20390;-74
2022/09/09 17:54:20;;;;;;;2.87;0.90;;;18.60;99.90;;;;;;4898089;29;20533;-74
2022/09/09 17:56:47;;;;;;;3.77;1.30;;;18.40;99.90;;;;;;4898250;29;20557;-73
2022/09/09 17:59:15;;;;;;;2.47;0.90;;;18.30;99.90;;;;;;4898151;29;20514;-72
2022/09/09 18:01:43;;;;;;;3.50;0.90;;;18.20;99.90;;;;;;4901670;29;20408;-72
2022/09/09 18:04:10;;;;;;;5.50;1.30;;;18.10;99.90;;;;;;4916623;29;20910;-73
2022/09/09 18:06:38;;;;;;;2.40;1.23;;;18.10;99.90;;;;;;4916970;29;20452;-73
2022/09/09 18:09:07;;;;;;;2.43;0.83;;;18.00;99.90;;;;;;4916706;29;20794;-73
2022/09/09 18:11:37;;;;;;;2.40;1.10;;;17.80;99.90;;;;;;4916929;29;20429;-73
2022/09/09 18:14:04;;;;;;;1.70;1.20;;;17.70;99.90;;;;;;4916435;29;20393;-73
2022/09/09 18:16:35;;;;;;;2.37;1.07;;;17.60;99.90;;;;;;4916787;29;20474;-74
2022/09/09 18:19:02;;;;;;;2.00;1.10;;;17.50;99.90;;;;;;4916967;29;20867;-74
2022/09/09 18:21:31;;;;;;;3.43;1.63;;;17.50;99.90;;;;;;4916143;29;20805;-74
2022/09/09 18:23:59;;;;;;;2.13;1.30;;;17.40;99.90;;;;;;4916393;29;20396;-74
2022/09/09 18:26:26;;;;;;;4.57;1.43;;;17.40;99.90;;;;;;4916921;29;20442;-74
2022/09/09 18:29:00;;;;;;;1.60;1.30;;;17.30;99.90;;;;;;4916822;29;20843;-73
2022/09/09 18:31:27;;;;;;;2.70;1.30;;;17.20;99.90;;;;;;4917115;29;20414;-74
2022/09/09 18:33:55;;;;;;;3.83;1.30;;;17.20;99.90;;;;;;4916476;29;20449;-73
2022/09/09 18:36:23;;;;;;;5.77;4.50;;;17.00;99.90;;;;;;4916557;29;20442;-73
2022/09/09 18:38:50;;;;;;;3.17;2.00;;;16.90;99.90;;;;;;4916634;29;20426;-74
2022/09/09 18:41:23;;;;;;;2.87;1.30;;;16.90;99.90;;;;;;4899882;29;20466;-73
2022/09/09 18:43:54;;;;;;;2.20;1.40;;;16.90;99.90;;;;;;4916462;29;20461;-73
2022/09/09 18:46:21;;;;;;;6.30;1.57;;;16.90;99.90;;;;;;4916624;29;20408;-74
2022/09/09 18:48:49;;;;;;;2.37;1.13;;;16.90;99.90;;;;;;4916871;29;20454;-73
2022/09/09 18:51:16;;;;;;;1.40;1.13;;;16.80;99.90;;;;;;4916599;29;20468;-73
2022/09/09 18:53:42;;;;;;;1.77;1.23;;;16.70;99.90;;;;;;4909105;29;20427;-74
2022/09/09 18:56:11;;;;;;;7.23;2.10;;;16.70;99.90;;;;;;4897259;29;20483;-74
2022/09/09 18:58:37;;;;;;;3.10;1.60;;;16.60;99.90;;;;;;4897756;29;20423;-74
2022/09/09 19:01:06;;;;;;;3.40;1.27;;;16.60;99.90;;;;;;4896556;29;20430;-74
2022/09/09 19:03:34;;;;;;;5.70;1.30;;;16.60;99.90;;;;;;4897608;29;20431;-74
2022/09/09 19:06:08;;;;;;;3.27;1.40;;;16.50;99.90;;;;;;4897195;29;20485;-73
2022/09/09 19:08:39;;;;;;;2.40;1.37;;;16.60;99.90;;;;;;4897572;29;20879;-74
2022/09/09 19:11:07;;;;;;;3.73;1.60;;;16.50;99.90;;;;;;4881068;29;20453;-74
2022/09/09 19:13:34;;;;;;;4.13;1.37;;;16.60;99.90;;;;;;4897495;29;20466;-74
2022/09/09 19:16:12;;;;;;;3.17;1.60;;;16.60;99.90;;;;;;4897141;29;20413;-74
2022/09/09 19:18:39;;;;;;;3.50;2.03;;;16.60;99.90;;;;;;4882380;29;20927;-74
2022/09/09 19:21:32;;;;;;;2.90;1.70;;;16.60;99.90;;;;;;4879048;29;20491;-75
2022/09/09 19:24:01;;;;;;;3.93;2.10;;;16.60;99.90;;;;;;4878649;29;20468;-75
2022/09/09 19:26:29;;;;;;;3.50;2.13;;;16.50;99.90;;;;;;4880553;29;20439;-75
2022/09/09 19:28:57;;;;;;;3.30;2.03;;;16.50;99.90;;;;;;4881914;29;20440;-76
2022/09/09 19:31:22;;;;;;;2.13;1.50;;;16.40;99.90;;;;;;4882024;29;20478;-75